createdAt,value
2018-02-07T00:02:08.558Z,80.96
2018-02-07T00:04:36.121Z,81.81
2018-02-07T00:07:04.002Z,82.18
2018-02-07T00:09:31.551Z,81.95
2018-02-07T00:11:59.104Z,82.57
2018-02-07T00:14:26.679Z,82.53
2018-02-07T00:16:54.229Z,82.25
2018-02-07T00:19:21.771Z,81.60
2018-02-07T00:21:49.394Z,80.67
2018-02-07T00:24:16.940Z,79.92
2018-02-07T00:26:44.480Z,79.34
2018-02-07T00:29:12.174Z,79.65
2018-02-07T00:31:39.727Z,79.79
2018-02-07T00:34:07.284Z,81.75
2018-02-07T00:36:34.875Z,82.34
2018-02-07T00:39:02.424Z,82.47
2018-02-07T00:41:29.979Z,83.30
2018-02-07T00:43:57.794Z,83.45
2018-02-07T00:46:25.336Z,83.77
2018-02-07T00:48:52.873Z,84.33
2018-02-07T00:51:20.746Z,84.30
2018-02-07T00:53:48.291Z,83.32
2018-02-07T00:56:15.853Z,82.49
2018-02-07T00:58:43.434Z,83.01
2018-02-07T01:01:10.982Z,84.06
2018-02-07T01:03:38.752Z,84.38
2018-02-07T01:06:06.402Z,83.34
2018-02-07T01:08:33.938Z,83.87
2018-02-07T01:11:01.626Z,84.37
2018-02-07T01:13:29.188Z,84.34
2018-02-07T01:15:56.734Z,84.45
2018-02-07T01:18:24.321Z,84.33
2018-02-07T01:20:51.869Z,83.59
2018-02-07T01:23:19.421Z,82.89
2018-02-07T01:25:47.023Z,82.85
2018-02-07T01:28:14.620Z,83.69
2018-02-07T01:30:42.181Z,84.41
2018-02-07T01:33:09.771Z,84.07
2018-02-07T01:35:37.331Z,82.41
2018-02-07T01:38:04.881Z,82.77
2018-02-07T01:40:32.747Z,83.56
2018-02-07T01:43:00.296Z,84.21
2018-02-07T01:45:27.849Z,84.14
2018-02-07T01:47:55.431Z,84.64
2018-02-07T01:50:22.985Z,84.84
2018-02-07T01:52:50.570Z,85.19
2018-02-07T01:55:18.169Z,84.67
2018-02-07T01:57:45.724Z,84.97
2018-02-07T02:00:13.266Z,84.11
2018-02-07T02:02:41.149Z,83.76
2018-02-07T02:05:08.706Z,84.45
2018-02-07T02:07:36.328Z,84.34
2018-02-07T02:10:03.904Z,83.87
2018-02-07T02:12:31.458Z,83.84
2018-02-07T02:14:59.010Z,83.54
2018-02-07T02:17:26.717Z,84.31
2018-02-07T02:19:54.308Z,84.36
2018-02-07T02:22:21.866Z,83.39
2018-02-07T02:24:49.446Z,82.70
2018-02-07T02:27:17.005Z,82.98
2018-02-07T02:29:44.567Z,82.64
2018-02-07T02:32:12.155Z,82.49
2018-02-07T02:34:39.701Z,82.92
2018-02-07T02:37:07.256Z,83.33
2018-02-07T02:39:34.855Z,83.68
2018-02-07T02:42:02.414Z,83.55
2018-02-07T02:44:29.975Z,82.51
2018-02-07T02:46:57.878Z,83.19
2018-02-07T02:49:25.427Z,83.85
2018-02-07T02:51:52.989Z,84.04
2018-02-07T02:54:20.598Z,84.42
2018-02-07T02:56:48.160Z,84.59
2018-02-07T02:59:15.703Z,85.09
2018-02-07T03:01:43.305Z,84.50
2018-02-07T03:04:10.870Z,84.38
2018-02-07T03:06:38.429Z,84.47
2018-02-07T03:09:06.031Z,83.87
2018-02-07T03:11:33.577Z,82.85
2018-02-07T03:14:01.118Z,82.20
2018-02-07T03:16:28.724Z,81.47
2018-02-07T03:18:56.286Z,81.01
2018-02-07T03:21:23.848Z,81.07
2018-02-07T03:23:51.459Z,80.60
2018-02-07T03:26:19.000Z,80.99
2018-02-07T03:28:46.552Z,80.72
2018-02-07T03:31:14.287Z,79.97
2018-02-07T03:33:41.839Z,79.94
2018-02-07T03:36:09.385Z,79.78
2018-02-07T03:38:37.089Z,78.92
2018-02-07T03:41:04.641Z,79.70
2018-02-07T03:43:32.183Z,79.58
2018-02-07T03:46:00.070Z,79.66
2018-02-07T03:48:27.622Z,80.19
2018-02-07T03:50:55.183Z,81.09
2018-02-07T03:53:23.066Z,80.89
2018-02-07T03:55:50.611Z,81.15
2018-02-07T03:58:18.157Z,82.47
2018-02-07T04:00:45.897Z,82.99
2018-02-07T04:03:13.474Z,83.43
2018-02-07T04:05:41.026Z,83.62
2018-02-07T04:08:08.744Z,82.25
2018-02-07T04:10:36.297Z,81.95
2018-02-07T04:13:03.838Z,82.75
2018-02-07T04:15:31.414Z,83.22
2018-02-07T04:17:58.964Z,83.49
2018-02-07T04:20:26.518Z,83.73
2018-02-07T04:22:54.098Z,83.88
2018-02-07T04:25:21.647Z,83.96
2018-02-07T04:27:49.213Z,84.02
2018-02-07T04:30:16.799Z,83.43
2018-02-07T04:32:44.346Z,82.44
2018-02-07T04:35:11.911Z,82.61
2018-02-07T04:37:39.601Z,81.81
2018-02-07T04:40:07.161Z,81.26
2018-02-07T04:42:34.727Z,81.22
2018-02-07T04:45:02.606Z,82.20
2018-02-07T04:47:30.206Z,81.73
2018-02-07T04:49:57.762Z,81.19
2018-02-07T04:52:25.358Z,81.53
2018-02-07T04:54:52.912Z,82.13
2018-02-07T04:57:20.462Z,82.75
2018-02-07T04:59:48.204Z,82.94
2018-02-07T05:02:15.749Z,82.89
2018-02-07T05:04:43.671Z,82.22
2018-02-07T05:07:11.530Z,81.16
2018-02-07T05:09:39.079Z,81.57
2018-02-07T05:12:06.630Z,81.29
2018-02-07T05:14:34.369Z,81.68
2018-02-07T05:17:01.921Z,80.32
2018-02-07T05:19:29.471Z,80.35
2018-02-07T05:21:57.153Z,79.99
2018-02-07T05:24:24.696Z,80.51
2018-02-07T05:26:52.241Z,79.93
2018-02-07T05:29:19.926Z,79.87
2018-02-07T05:31:47.487Z,79.49
2018-02-07T05:34:15.031Z,78.98
2018-02-07T05:36:42.760Z,78.66
2018-02-07T05:39:10.301Z,77.98
2018-02-07T05:41:37.857Z,77.79
2018-02-07T05:44:05.433Z,78.57
2018-02-07T05:46:32.989Z,78.25
2018-02-07T05:49:00.534Z,78.33
2018-02-07T05:51:28.255Z,78.03
2018-02-07T05:53:55.842Z,78.13
2018-02-07T05:56:23.392Z,77.54
2018-02-07T05:58:50.930Z,78.10
2018-02-07T06:01:18.496Z,78.16
2018-02-07T06:03:46.094Z,78.05
2018-02-07T06:06:13.652Z,77.72
2018-02-07T06:08:41.206Z,78.33
2018-02-07T06:11:08.954Z,78.63
2018-02-07T06:13:36.506Z,78.62
2018-02-07T06:16:04.128Z,79.55
2018-02-07T06:18:31.747Z,79.82
2018-02-07T06:20:59.306Z,79.64
2018-02-07T06:23:26.874Z,79.59
2018-02-07T06:25:54.613Z,78.62
2018-02-07T06:28:22.177Z,78.12
2018-02-07T06:30:49.727Z,77.83
2018-02-07T06:33:17.466Z,77.58
2018-02-07T06:35:45.057Z,77.26
2018-02-07T06:38:12.637Z,77.58
2018-02-07T06:40:40.218Z,76.78
2018-02-07T06:43:07.764Z,76.81
2018-02-07T06:45:35.352Z,77.06
2018-02-07T06:48:02.943Z,76.71
2018-02-07T06:50:30.504Z,76.25
2018-02-07T06:52:58.084Z,75.49
2018-02-07T06:55:25.784Z,75.66
2018-02-07T06:57:53.330Z,75.01
2018-02-07T07:00:20.902Z,75.52
2018-02-07T07:02:48.469Z,75.40
2018-02-07T07:05:16.022Z,74.71
2018-02-07T07:07:43.578Z,74.55
2018-02-07T07:10:11.178Z,74.60
2018-02-07T07:12:38.728Z,74.35
2018-02-07T07:15:06.286Z,74.05
2018-02-07T07:17:34.301Z,74.10
2018-02-07T07:20:01.881Z,74.23
2018-02-07T07:22:29.458Z,74.25
2018-02-07T07:24:57.198Z,74.15
2018-02-07T07:27:24.744Z,74.06
2018-02-07T07:29:52.286Z,74.37
2018-02-07T07:32:19.861Z,74.36
2018-02-07T07:34:47.431Z,74.75
2018-02-07T07:37:14.987Z,73.94
2018-02-07T07:39:42.675Z,74.42
2018-02-07T07:42:10.238Z,74.12
2018-02-07T07:44:37.829Z,74.11
2018-02-07T07:47:05.419Z,73.99
2018-02-07T07:49:32.994Z,73.87
2018-02-07T07:52:00.548Z,74.18
2018-02-07T07:54:28.437Z,73.61
2018-02-07T07:56:56.011Z,73.19
2018-02-07T07:59:25.570Z,72.90
2018-02-07T08:01:53.158Z,72.24
2018-02-07T08:04:20.732Z,71.73
2018-02-07T08:06:48.312Z,72.45
2018-02-07T08:09:16.009Z,71.98
2018-02-07T08:11:43.552Z,72.45
2018-02-07T08:14:11.119Z,71.87
2018-02-07T08:16:38.860Z,72.17
2018-02-07T08:19:06.427Z,71.56
2018-02-07T08:21:33.974Z,70.84
2018-02-07T08:24:01.671Z,70.44
2018-02-07T08:26:29.235Z,70.59
2018-02-07T08:28:56.791Z,70.62
2018-02-07T08:31:24.531Z,70.56
2018-02-07T08:33:52.072Z,70.79
2018-02-07T08:36:19.623Z,70.45
2018-02-07T08:38:47.223Z,70.01
2018-02-07T08:41:14.778Z,69.93
2018-02-07T08:43:42.337Z,69.35
2018-02-07T08:46:10.017Z,67.86
2018-02-07T08:48:37.568Z,67.09
2018-02-07T08:51:05.130Z,68.56
2018-02-07T08:53:32.865Z,68.00
2018-02-07T08:56:00.418Z,67.32
2018-02-07T08:58:27.964Z,68.27
2018-02-07T09:00:55.570Z,68.35
2018-02-07T09:03:23.119Z,67.92
2018-02-07T09:05:50.666Z,68.83
2018-02-07T09:08:18.414Z,68.33
2018-02-07T09:10:45.976Z,68.12
2018-02-07T09:13:13.554Z,68.86
2018-02-07T09:15:41.243Z,67.93
2018-02-07T09:18:08.799Z,68.44
2018-02-07T09:20:36.351Z,68.92
2018-02-07T09:23:04.888Z,69.41
2018-02-07T09:25:32.695Z,68.88
2018-02-07T09:28:00.243Z,68.72
2018-02-07T09:30:27.829Z,68.71
2018-02-07T09:32:55.402Z,68.03
2018-02-07T09:35:22.958Z,67.76
2018-02-07T09:37:50.612Z,67.63
2018-02-07T09:40:18.167Z,67.56
2018-02-07T09:42:45.729Z,67.75
2018-02-07T09:45:13.311Z,67.77
2018-02-07T09:47:40.877Z,68.61
2018-02-07T09:50:08.434Z,67.56
2018-02-07T09:52:36.187Z,67.27
2018-02-07T09:55:03.742Z,67.34
2018-02-07T09:57:31.290Z,68.07
2018-02-07T09:59:59.171Z,66.47
2018-02-07T10:02:26.714Z,67.42
2018-02-07T10:04:54.283Z,67.36
2018-02-07T10:07:21.855Z,67.71
2018-02-07T10:09:49.429Z,67.27
2018-02-07T10:12:16.978Z,67.50
2018-02-07T10:14:44.674Z,67.83
2018-02-07T10:17:12.222Z,67.31
2018-02-07T10:19:39.771Z,67.50
2018-02-07T10:22:07.366Z,66.96
2018-02-07T10:24:34.921Z,67.10
2018-02-07T10:27:02.475Z,67.39
2018-02-07T10:29:30.201Z,67.28
2018-02-07T10:31:57.762Z,67.44
2018-02-07T10:34:25.366Z,67.21
2018-02-07T10:36:52.995Z,67.55
2018-02-07T10:39:20.555Z,67.63
2018-02-07T10:41:48.103Z,67.24
2018-02-07T10:44:16.074Z,67.28
2018-02-07T10:46:43.624Z,66.98
2018-02-07T10:49:11.169Z,66.26
2018-02-07T10:51:39.193Z,65.73
2018-02-07T10:54:06.739Z,65.66
2018-02-07T10:56:34.299Z,65.09
2018-02-07T10:59:01.846Z,65.08
2018-02-07T11:01:29.400Z,64.79
2018-02-07T11:03:57.274Z,64.28
2018-02-07T11:06:24.826Z,64.72
2018-02-07T11:08:52.386Z,65.43
2018-02-07T11:11:20.022Z,64.52
2018-02-07T11:13:47.578Z,65.20
2018-02-07T11:16:15.180Z,65.72
2018-02-07T11:18:42.762Z,64.93
2018-02-07T11:21:10.321Z,65.34
2018-02-07T11:23:37.874Z,65.54
2018-02-07T11:26:05.451Z,65.14
2018-02-07T11:28:33.019Z,65.06
2018-02-07T11:31:00.578Z,64.77
2018-02-07T11:33:28.269Z,64.15
2018-02-07T11:35:55.872Z,63.95
2018-02-07T11:38:23.407Z,63.61
2018-02-07T11:40:50.995Z,64.19
2018-02-07T11:43:18.553Z,64.63
2018-02-07T11:45:46.119Z,64.80
2018-02-07T11:48:13.809Z,64.79
2018-02-07T11:50:41.356Z,64.17
2018-02-07T11:53:08.903Z,64.41
2018-02-07T11:55:36.578Z,64.08
2018-02-07T11:58:04.128Z,63.88
2018-02-07T12:00:31.679Z,62.87
2018-02-07T12:02:59.402Z,62.91
2018-02-07T12:05:26.984Z,63.24
2018-02-07T12:07:54.558Z,62.73
2018-02-07T12:10:22.254Z,62.97
2018-02-07T12:12:49.798Z,63.11
2018-02-07T12:15:17.350Z,62.93
2018-02-07T12:17:45.047Z,63.61
2018-02-07T12:20:12.608Z,63.46
2018-02-07T12:22:40.163Z,64.20
2018-02-07T12:25:07.749Z,63.98
2018-02-07T12:27:35.312Z,64.13
2018-02-07T12:30:02.875Z,64.67
2018-02-07T12:32:30.474Z,64.69
2018-02-07T12:34:58.056Z,64.92
2018-02-07T12:37:26.367Z,65.08
2018-02-07T12:39:54.187Z,64.85
2018-02-07T12:42:21.735Z,64.41
2018-02-07T12:44:49.288Z,65.41
2018-02-07T12:47:17.150Z,65.49
2018-02-07T12:49:44.706Z,66.19
2018-02-07T12:52:12.264Z,65.92
2018-02-07T12:54:40.015Z,65.82
2018-02-07T12:57:07.560Z,65.82
2018-02-07T12:59:35.957Z,66.00
2018-02-07T13:02:03.693Z,65.26
2018-02-07T13:04:31.258Z,64.89
2018-02-07T13:06:58.806Z,64.91
2018-02-07T13:09:26.494Z,65.25
2018-02-07T13:11:54.067Z,65.21
2018-02-07T13:14:21.628Z,65.29
2018-02-07T13:16:49.372Z,66.03
2018-02-07T13:19:16.919Z,65.45
2018-02-07T13:21:44.468Z,66.01
2018-02-07T13:24:12.079Z,65.98
2018-02-07T13:26:39.627Z,66.40
2018-02-07T13:29:07.184Z,66.03
2018-02-07T13:31:35.061Z,66.27
2018-02-07T13:34:02.628Z,66.51
2018-02-07T13:36:30.176Z,66.23
2018-02-07T13:38:57.937Z,66.13
2018-02-07T13:41:25.496Z,66.23
2018-02-07T13:43:53.042Z,65.45
2018-02-07T13:46:20.630Z,65.92
2018-02-07T13:48:48.177Z,66.37
2018-02-07T13:51:15.733Z,66.59
2018-02-07T13:53:43.444Z,66.60
2018-02-07T13:56:10.994Z,67.03
2018-02-07T13:58:38.562Z,66.92
2018-02-07T14:01:06.437Z,67.13
2018-02-07T14:03:33.984Z,66.57
2018-02-07T14:06:01.534Z,66.38
2018-02-07T14:08:29.115Z,66.23
2018-02-07T14:10:56.658Z,65.66
2018-02-07T14:13:24.257Z,65.59
2018-02-07T14:15:51.839Z,65.48
2018-02-07T14:18:19.382Z,65.93
2018-02-07T14:20:46.927Z,65.88
2018-02-07T14:23:14.597Z,66.60
2018-02-07T14:25:42.178Z,67.14
2018-02-07T14:28:09.717Z,67.18
2018-02-07T14:30:37.586Z,67.05
2018-02-07T14:33:05.143Z,67.19
2018-02-07T14:35:32.701Z,67.74
2018-02-07T14:38:00.568Z,67.86
2018-02-07T14:40:28.113Z,67.66
2018-02-07T14:42:55.657Z,67.82
2018-02-07T14:45:23.253Z,67.86
2018-02-07T14:47:50.830Z,67.88
2018-02-07T14:50:18.395Z,68.73
2018-02-07T14:52:45.998Z,68.31
2018-02-07T14:55:13.550Z,68.66
2018-02-07T14:57:41.108Z,68.83
2018-02-07T15:00:08.711Z,68.93
2018-02-07T15:02:36.268Z,68.77
2018-02-07T15:05:04.002Z,69.03
2018-02-07T15:07:31.592Z,69.97
2018-02-07T15:09:59.159Z,70.34
2018-02-07T15:12:26.730Z,70.40
2018-02-07T15:14:54.278Z,70.36
2018-02-07T15:17:21.826Z,70.99
2018-02-07T15:19:49.405Z,70.58
2018-02-07T15:22:16.958Z,71.37
2018-02-07T15:24:44.510Z,71.06
2018-02-07T15:27:12.195Z,71.34
2018-02-07T15:29:39.740Z,70.88
2018-02-07T15:32:07.303Z,71.08
2018-02-07T15:34:35.006Z,71.50
2018-02-07T15:37:02.555Z,71.17
2018-02-07T15:39:30.097Z,70.82
2018-02-07T15:41:57.827Z,71.16
2018-02-07T15:44:25.415Z,71.27
2018-02-07T15:46:52.971Z,71.37
2018-02-07T15:49:20.679Z,71.59
2018-02-07T15:51:48.301Z,72.10
2018-02-07T15:54:15.863Z,73.28
2018-02-07T15:56:43.554Z,72.98
2018-02-07T15:59:11.103Z,73.46
2018-02-07T16:01:38.718Z,73.00
2018-02-07T16:04:07.037Z,72.52
2018-02-07T16:06:34.603Z,73.04
2018-02-07T16:09:02.168Z,73.30
2018-02-07T16:11:29.910Z,73.42
2018-02-07T16:13:57.461Z,73.72
2018-02-07T16:16:25.023Z,73.54
2018-02-07T16:18:52.630Z,73.34
2018-02-07T16:21:20.210Z,73.81
2018-02-07T16:23:47.810Z,73.59
2018-02-07T16:26:15.559Z,74.28
2018-02-07T16:28:43.103Z,74.76
2018-02-07T16:31:10.649Z,74.49
2018-02-07T16:33:38.521Z,74.18
2018-02-07T16:36:06.120Z,74.88
2018-02-07T16:38:33.667Z,74.67
2018-02-07T16:41:01.387Z,74.42
2018-02-07T16:43:28.928Z,74.92
2018-02-07T16:45:56.487Z,75.21
2018-02-07T16:48:24.375Z,75.59
2018-02-07T16:50:51.945Z,75.29
2018-02-07T16:53:19.494Z,75.39
2018-02-07T16:55:47.102Z,74.72
2018-02-07T16:58:14.656Z,74.47
2018-02-07T17:00:42.210Z,75.25
2018-02-07T17:03:09.902Z,75.18
2018-02-07T17:05:37.472Z,75.14
2018-02-07T17:08:05.053Z,74.98
2018-02-07T17:10:32.639Z,75.37
2018-02-07T17:13:00.194Z,75.51
2018-02-07T17:15:27.742Z,75.61
2018-02-07T17:17:55.334Z,75.87
2018-02-07T17:20:22.927Z,76.23
2018-02-07T17:22:50.488Z,77.19
2018-02-07T17:25:18.063Z,76.89
2018-02-07T17:27:45.616Z,75.88
2018-02-07T17:30:13.185Z,75.42
2018-02-07T17:32:40.807Z,74.69
2018-02-07T17:35:08.357Z,74.41
2018-02-07T17:37:35.943Z,74.47
2018-02-07T17:40:03.528Z,74.97
2018-02-07T17:42:31.576Z,75.34
2018-02-07T17:44:59.164Z,75.42
2018-02-07T17:47:26.869Z,75.67
2018-02-07T17:49:54.440Z,75.78
2018-02-07T17:52:22.000Z,75.66
2018-02-07T17:54:49.733Z,76.00
2018-02-07T17:57:17.330Z,75.70
2018-02-07T17:59:45.744Z,75.86
2018-02-07T18:02:13.361Z,76.97
2018-02-07T18:04:40.979Z,76.52
2018-02-07T18:07:08.543Z,76.30
2018-02-07T18:09:36.124Z,77.29
2018-02-07T18:12:03.687Z,77.70
2018-02-07T18:14:32.464Z,76.94
2018-02-07T18:17:00.163Z,76.77
2018-02-07T18:19:27.723Z,76.51
2018-02-07T18:21:55.283Z,76.99
2018-02-07T18:24:23.025Z,77.38
2018-02-07T18:26:50.590Z,77.91
2018-02-07T18:29:18.147Z,78.37
2018-02-07T18:31:45.849Z,78.62
2018-02-07T18:34:13.427Z,78.81
2018-02-07T18:36:40.979Z,78.77
2018-02-07T18:39:08.568Z,79.17
2018-02-07T18:41:36.148Z,79.15
2018-02-07T18:44:03.719Z,79.28
2018-02-07T18:46:31.319Z,79.21
2018-02-07T18:48:58.894Z,79.17
2018-02-07T18:51:26.456Z,79.17
2018-02-07T18:53:55.009Z,79.29
2018-02-07T18:56:22.564Z,79.55
2018-02-07T18:58:50.122Z,79.52
2018-02-07T19:01:17.711Z,79.84
2018-02-07T19:03:45.295Z,80.01
2018-02-07T19:06:12.859Z,79.87
2018-02-07T19:08:40.743Z,79.69
2018-02-07T19:11:08.311Z,79.72
2018-02-07T19:13:35.897Z,79.70
2018-02-07T19:16:03.619Z,79.46
2018-02-07T19:18:31.173Z,79.66
2018-02-07T19:20:58.731Z,79.33
2018-02-07T19:23:26.341Z,79.11
2018-02-07T19:25:53.907Z,79.58
2018-02-07T19:28:21.491Z,79.42
2018-02-07T19:30:49.187Z,79.99
2018-02-07T19:33:16.747Z,80.10
2018-02-07T19:35:44.301Z,79.88
2018-02-07T19:38:12.054Z,79.73
2018-02-07T19:40:39.617Z,79.71
2018-02-07T19:43:07.203Z,79.60
2018-02-07T19:45:35.078Z,79.67
2018-02-07T19:48:02.639Z,79.52
2018-02-07T19:50:30.190Z,79.43
2018-02-07T19:52:57.788Z,79.15
2018-02-07T19:55:25.375Z,78.49
2018-02-07T19:57:52.928Z,78.18
2018-02-07T20:00:20.496Z,77.79
2018-02-07T20:02:48.062Z,77.39
2018-02-07T20:05:15.824Z,77.28
2018-02-07T20:07:43.420Z,77.00
2018-02-07T20:10:10.976Z,76.60
2018-02-07T20:12:38.677Z,76.22
2018-02-07T20:15:06.234Z,76.55
2018-02-07T20:17:33.819Z,76.61
2018-02-07T20:20:01.434Z,76.74
2018-02-07T20:22:29.003Z,76.51
2018-02-07T20:24:56.561Z,76.51
2018-02-07T20:27:24.312Z,77.17
2018-02-07T20:29:51.883Z,78.39
2018-02-07T20:32:19.459Z,78.69
2018-02-07T20:34:47.205Z,78.97
2018-02-07T20:37:14.768Z,78.58
2018-02-07T20:39:42.320Z,78.03
2018-02-07T20:42:10.195Z,78.09
2018-02-07T20:44:37.742Z,78.13
2018-02-07T20:47:05.307Z,77.99
2018-02-07T20:49:33.166Z,78.60
2018-02-07T20:52:00.754Z,78.40
2018-02-07T20:54:28.517Z,78.03
2018-02-07T20:56:56.123Z,78.33
2018-02-07T20:59:23.729Z,78.81
2018-02-07T21:01:51.298Z,79.04
2018-02-07T21:04:18.913Z,79.03
2018-02-07T21:06:46.514Z,78.57
2018-02-07T21:09:14.106Z,78.02
2018-02-07T21:11:41.693Z,78.10
2018-02-07T21:14:09.257Z,77.52
2018-02-07T21:16:36.806Z,77.55
2018-02-07T21:19:04.433Z,78.22
2018-02-07T21:21:32.004Z,78.18
2018-02-07T21:23:59.586Z,78.22
2018-02-07T21:26:27.203Z,77.83
2018-02-07T21:28:54.766Z,77.75
2018-02-07T21:31:22.537Z,78.23
2018-02-07T21:33:50.289Z,77.21
2018-02-07T21:36:17.855Z,77.06
2018-02-07T21:38:45.433Z,76.96
2018-02-07T21:41:13.154Z,76.59
2018-02-07T21:43:40.744Z,76.08
2018-02-07T21:46:08.304Z,75.97
2018-02-07T21:48:36.084Z,76.26
2018-02-07T21:51:03.671Z,77.57
2018-02-07T21:53:31.219Z,77.70
2018-02-07T21:55:58.953Z,77.00
2018-02-07T21:58:26.512Z,78.25
2018-02-07T22:00:54.084Z,78.14
2018-02-07T22:03:21.682Z,77.48
2018-02-07T22:05:49.230Z,77.02
2018-02-07T22:08:16.829Z,76.79
2018-02-07T22:10:44.430Z,76.12
2018-02-07T22:13:12.005Z,76.23
2018-02-07T22:15:39.590Z,76.46
2018-02-07T22:18:07.179Z,76.43
2018-02-07T22:20:34.750Z,76.50
2018-02-07T22:23:02.306Z,76.29
2018-02-07T22:25:30.020Z,75.89
2018-02-07T22:27:57.570Z,75.46
2018-02-07T22:30:25.167Z,75.64
2018-02-07T22:32:52.804Z,75.86
2018-02-07T22:35:20.362Z,76.52
2018-02-07T22:37:47.918Z,77.35
2018-02-07T22:40:15.620Z,77.27
2018-02-07T22:42:43.180Z,77.97
2018-02-07T22:45:10.729Z,77.93
2018-02-07T22:47:38.310Z,79.10
2018-02-07T22:50:05.866Z,78.82
2018-02-07T22:52:33.459Z,79.12
2018-02-07T22:55:01.209Z,81.15
2018-02-07T22:57:28.766Z,80.53
2018-02-07T22:59:56.325Z,79.73
2018-02-07T23:02:24.072Z,80.02
2018-02-07T23:04:51.611Z,81.30
2018-02-07T23:07:19.162Z,81.74
2018-02-07T23:09:47.034Z,81.79
2018-02-07T23:12:14.591Z,82.12
2018-02-07T23:14:42.146Z,82.45
2018-02-07T23:17:09.830Z,81.90
2018-02-07T23:22:04.214Z,81.39
2018-02-07T23:24:31.810Z,80.90
2018-02-07T23:26:59.431Z,81.27
2018-02-07T23:29:26.990Z,83.06
2018-02-07T23:31:54.564Z,83.53
2018-02-07T23:34:22.109Z,83.41
2018-02-07T23:36:49.682Z,83.84
2018-02-07T23:39:17.272Z,83.54
2018-02-07T23:41:44.851Z,83.19
2018-02-07T23:44:12.437Z,83.77
2018-02-07T23:46:40.153Z,83.41
2018-02-07T23:49:07.694Z,85.42
2018-02-07T23:51:35.245Z,84.93
2018-02-07T23:54:03.002Z,85.33
2018-02-07T23:56:30.537Z,85.62
2018-02-07T23:58:58.090Z,86.81
